createdAt,value
2018-09-22T00:00:10.703Z,15.10
2018-09-22T00:02:41.184Z,15.00
2018-09-22T00:05:12.105Z,15.00
2018-09-22T00:07:46.256Z,14.90
2018-09-22T00:10:21.586Z,14.90
2018-09-22T00:12:52.106Z,14.90
2018-09-22T00:15:23.429Z,14.90
2018-09-22T00:17:55.058Z,14.90
2018-09-22T00:20:25.747Z,15.00
2018-09-22T00:22:56.747Z,14.90
2018-09-22T00:25:27.547Z,14.90
2018-09-22T00:27:59.586Z,14.90
2018-09-22T00:30:30.105Z,14.90
2018-09-22T00:33:00.781Z,14.90
2018-09-22T00:35:31.228Z,14.90
2018-09-22T00:38:01.659Z,15.00
2018-09-22T00:40:32.125Z,14.90
2018-09-22T00:43:05.409Z,15.00
2018-09-22T00:45:40.681Z,14.80
2018-09-22T00:48:16.453Z,14.60
2018-09-22T00:50:46.947Z,14.60
2018-09-22T00:53:17.923Z,14.70
2018-09-22T00:55:48.387Z,14.60
2018-09-22T00:58:19.426Z,14.50
2018-09-22T01:00:50.666Z,14.50
2018-09-22T01:03:22.260Z,14.60
2018-09-22T01:05:53.898Z,14.50
2018-09-22T01:08:24.865Z,14.60
2018-09-22T01:11:00.065Z,14.80
2018-09-22T01:13:30.355Z,14.70
2018-09-22T01:16:01.477Z,14.70
2018-09-22T01:18:37.185Z,14.70
2018-09-22T01:21:11.340Z,14.70
2018-09-22T01:23:43.388Z,14.70
2018-09-22T01:26:14.177Z,14.80
2018-09-22T01:28:47.265Z,14.80
2018-09-22T01:31:24.784Z,14.70
2018-09-22T01:33:55.474Z,14.70
2018-09-22T01:36:25.850Z,14.70
2018-09-22T01:38:56.378Z,14.70
2018-09-22T01:41:27.337Z,14.70
2018-09-22T01:43:58.219Z,14.70
2018-09-22T01:46:29.025Z,14.70
2018-09-22T01:49:00.302Z,14.70
2018-09-22T01:51:31.751Z,14.70
2018-09-22T01:54:02.944Z,14.50
2018-09-22T01:56:34.026Z,14.40
2018-09-22T01:59:05.302Z,14.40
2018-09-22T02:01:36.025Z,14.30
2018-09-22T02:04:07.454Z,14.40
2018-09-22T02:06:38.912Z,14.40
2018-09-22T02:09:11.697Z,14.50
2018-09-22T02:11:43.401Z,14.40
2018-09-22T02:14:15.059Z,14.40
2018-09-22T02:16:45.942Z,14.40
2018-09-22T02:19:17.216Z,14.30
2018-09-22T02:21:48.057Z,14.40
2018-09-22T02:24:18.962Z,14.30
2018-09-22T02:26:50.028Z,14.30
2018-09-22T02:29:20.787Z,14.40
2018-09-22T02:31:51.263Z,14.30
2018-09-22T02:34:22.273Z,14.40
2018-09-22T02:36:52.592Z,14.20
2018-09-22T02:39:22.784Z,14.30
2018-09-22T02:41:53.627Z,14.30
2018-09-22T02:44:25.386Z,14.40
2018-09-22T02:46:56.564Z,14.40
2018-09-22T02:49:27.362Z,14.40
2018-09-22T02:51:58.725Z,14.40
2018-09-22T02:54:29.503Z,14.30
2018-09-22T02:57:01.184Z,14.30
2018-09-22T02:59:31.502Z,14.30
2018-09-22T03:02:02.558Z,14.20
2018-09-22T03:04:33.942Z,14.30
2018-09-22T03:07:05.465Z,14.30
2018-09-22T03:09:37.063Z,14.30
2018-09-22T03:12:08.742Z,14.30
2018-09-22T03:14:39.383Z,14.30
2018-09-22T03:17:10.056Z,14.30
2018-09-22T03:19:40.855Z,14.30
2018-09-22T03:22:11.389Z,14.20
2018-09-22T03:24:41.585Z,14.20
2018-09-22T03:27:12.333Z,14.30
2018-09-22T03:29:44.220Z,14.30
2018-09-22T03:32:16.426Z,14.30
2018-09-22T03:34:47.009Z,14.20
2018-09-22T03:37:18.461Z,14.10
2018-09-22T03:39:49.219Z,14.10
2018-09-22T03:42:20.596Z,14.00
2018-09-22T03:44:52.196Z,14.10
2018-09-22T03:47:23.544Z,14.10
2018-09-22T03:49:54.825Z,14.00
2018-09-22T03:52:26.592Z,14.00
2018-09-22T03:54:58.308Z,13.90
2018-09-22T03:57:30.462Z,14.00
2018-09-22T04:00:01.060Z,14.00
2018-09-22T04:02:31.774Z,13.90
2018-09-22T04:05:02.228Z,13.90
2018-09-22T04:07:33.755Z,13.90
2018-09-22T04:10:04.600Z,13.80
2018-09-22T04:12:35.743Z,13.80
2018-09-22T04:15:07.032Z,13.90
2018-09-22T04:17:37.219Z,13.80
2018-09-22T04:20:07.865Z,13.80
2018-09-22T04:22:38.514Z,13.70
2018-09-22T04:25:09.096Z,13.70
2018-09-22T04:27:40.338Z,13.70
2018-09-22T04:30:12.105Z,13.70
2018-09-22T04:32:42.482Z,13.80
2018-09-22T04:35:13.845Z,13.80
2018-09-22T04:37:45.197Z,13.80
2018-09-22T04:40:16.345Z,13.80
2018-09-22T04:42:46.907Z,13.70
2018-09-22T04:45:17.779Z,13.80
2018-09-22T04:47:48.385Z,13.80
2018-09-22T04:50:19.537Z,13.80
2018-09-22T04:52:50.298Z,13.80
2018-09-22T04:55:21.615Z,13.90
2018-09-22T04:57:52.481Z,13.80
2018-09-22T05:00:23.327Z,13.80
2018-09-22T05:02:53.769Z,13.70
2018-09-22T05:05:24.911Z,13.70
2018-09-22T05:07:55.183Z,13.70
2018-09-22T05:10:25.947Z,13.70
2018-09-22T05:12:56.585Z,13.70
2018-09-22T05:15:27.331Z,13.70
2018-09-22T05:17:58.433Z,13.80
2018-09-22T05:20:29.284Z,13.70
2018-09-22T05:23:00.307Z,13.70
2018-09-22T05:25:31.098Z,13.70
2018-09-22T05:28:02.899Z,13.80
2018-09-22T05:30:33.743Z,13.70
2018-09-22T05:33:04.986Z,13.70
2018-09-22T05:35:36.348Z,13.60
2018-09-22T05:38:08.677Z,13.50
2018-09-22T05:40:39.588Z,13.60
2018-09-22T05:43:10.588Z,13.60
2018-09-22T05:45:41.470Z,13.50
2018-09-22T05:48:11.738Z,13.50
2018-09-22T05:50:42.356Z,13.40
2018-09-22T05:53:13.100Z,13.40
2018-09-22T05:55:44.083Z,13.40
2018-09-22T05:58:14.807Z,13.50
2018-09-22T06:00:45.645Z,13.50
2018-09-22T06:03:16.347Z,13.50
2018-09-22T06:05:46.669Z,13.50
2018-09-22T06:08:17.672Z,13.60
2018-09-22T06:10:48.666Z,13.80
2018-09-22T06:13:20.479Z,13.80
2018-09-22T06:15:51.700Z,13.80
2018-09-22T06:18:22.481Z,13.90
2018-09-22T06:20:55.513Z,14.00
2018-09-22T06:23:26.581Z,14.00
2018-09-22T06:25:58.436Z,14.10
2018-09-22T06:28:29.794Z,14.30
2018-09-22T06:31:00.784Z,14.90
2018-09-22T06:33:32.003Z,15.60
2018-09-22T06:36:04.933Z,16.30
2018-09-22T06:38:36.201Z,16.60
2018-09-22T06:41:07.505Z,17.10
2018-09-22T06:43:38.557Z,17.40
2018-09-22T06:46:09.616Z,17.50
2018-09-22T06:48:40.224Z,17.70
2018-09-22T06:51:10.700Z,18.00
2018-09-22T06:53:42.035Z,18.30
2018-09-22T06:56:13.164Z,19.00
2018-09-22T06:58:43.632Z,19.10
2018-09-22T07:01:14.418Z,19.00
2018-09-22T07:03:45.435Z,19.10
2018-09-22T07:06:15.569Z,19.60
2018-09-22T07:08:46.591Z,19.80
2018-09-22T07:11:17.247Z,19.90
2018-09-22T07:13:47.545Z,20.10
2018-09-22T07:16:18.272Z,19.90
2018-09-22T07:18:48.653Z,20.50
2018-09-22T07:21:23.028Z,20.60
2018-09-22T07:23:53.344Z,20.70
2018-09-22T07:26:24.441Z,21.20
2018-09-22T07:28:55.512Z,21.40
2018-09-22T07:31:26.316Z,21.50
2018-09-22T07:33:56.724Z,21.50
2018-09-22T07:36:27.506Z,21.40
2018-09-22T07:38:58.335Z,21.10
2018-09-22T07:41:28.640Z,21.20
2018-09-22T07:44:00.103Z,21.30
2018-09-22T07:46:30.333Z,21.60
2018-09-22T07:49:02.320Z,22.40
2018-09-22T07:51:34.031Z,22.90
2018-09-22T07:54:04.931Z,23.00
2018-09-22T07:56:36.034Z,23.00
2018-09-22T07:59:06.784Z,22.90
2018-09-22T08:01:37.326Z,22.60
2018-09-22T08:04:08.040Z,21.90
2018-09-22T08:06:38.456Z,21.60
2018-09-22T08:09:09.906Z,21.10
2018-09-22T08:11:40.705Z,21.60
2018-09-22T08:14:11.635Z,20.80
2018-09-22T08:16:42.502Z,20.80
2018-09-22T08:19:13.557Z,21.60
2018-09-22T08:21:44.732Z,21.80
2018-09-22T08:24:15.797Z,22.20
2018-09-22T08:26:46.516Z,22.60
2018-09-22T08:29:17.207Z,23.10
2018-09-22T08:31:47.454Z,23.20
2018-09-22T08:34:18.192Z,23.40
2018-09-22T08:36:49.735Z,24.20
2018-09-22T08:39:20.417Z,24.20
2018-09-22T08:41:51.089Z,24.60
2018-09-22T08:44:21.176Z,24.70
2018-09-22T08:46:51.308Z,23.20
2018-09-22T08:49:22.338Z,21.70
2018-09-22T08:51:52.828Z,22.20
2018-09-22T08:54:23.003Z,22.00
2018-09-22T08:56:53.372Z,21.20
2018-09-22T08:59:24.426Z,20.60
2018-09-22T09:01:55.301Z,21.00
2018-09-22T09:04:26.876Z,21.80
2018-09-22T09:06:58.426Z,22.40
2018-09-22T09:09:28.653Z,22.60
2018-09-22T09:11:59.027Z,22.90
2018-09-22T09:14:29.460Z,23.20
2018-09-22T09:17:00.037Z,23.20
2018-09-22T09:19:30.805Z,23.50
2018-09-22T09:22:02.289Z,23.70
2018-09-22T09:24:32.772Z,24.90
2018-09-22T09:27:04.429Z,25.40
2018-09-22T09:29:34.734Z,23.70
2018-09-22T09:32:05.074Z,23.60
2018-09-22T09:34:37.349Z,23.30
2018-09-22T09:37:07.870Z,22.90
2018-09-22T09:39:38.369Z,23.50
2018-09-22T09:42:08.617Z,24.50
2018-09-22T09:44:39.530Z,25.30
2018-09-22T09:47:09.846Z,26.20
2018-09-22T09:49:40.636Z,25.10
2018-09-22T09:52:11.182Z,24.60
2018-09-22T09:54:41.979Z,22.60
2018-09-22T09:57:14.945Z,22.50
2018-09-22T09:59:45.589Z,24.40
2018-09-22T10:02:16.602Z,23.90
2018-09-22T10:04:46.824Z,23.20
2018-09-22T10:07:17.644Z,23.00
2018-09-22T10:09:48.499Z,23.10
2018-09-22T10:12:18.701Z,24.10
2018-09-22T10:14:49.051Z,24.40
2018-09-22T10:17:19.698Z,24.30
2018-09-22T10:19:50.387Z,23.40
2018-09-22T10:22:20.999Z,22.70
2018-09-22T10:24:51.556Z,21.40
2018-09-22T10:27:22.186Z,22.40
2018-09-22T10:29:52.410Z,22.60
2018-09-22T10:32:23.268Z,23.00
2018-09-22T10:34:54.189Z,22.20
2018-09-22T10:37:25.538Z,21.80
2018-09-22T10:39:57.025Z,21.20
2018-09-22T10:42:27.327Z,21.70
2018-09-22T10:44:58.045Z,22.20
2018-09-22T10:47:28.424Z,22.40
2018-09-22T10:49:59.247Z,23.20
2018-09-22T10:52:30.078Z,23.60
2018-09-22T10:55:00.951Z,23.40
2018-09-22T10:57:31.864Z,23.50
2018-09-22T11:00:03.355Z,24.20
2018-09-22T11:02:34.770Z,24.60
2018-09-22T11:05:05.248Z,25.50
2018-09-22T11:07:36.275Z,25.70
2018-09-22T11:10:06.787Z,25.30
2018-09-22T11:12:37.101Z,26.40
2018-09-22T11:15:07.713Z,26.00
2018-09-22T11:17:37.857Z,25.50
2018-09-22T11:20:08.989Z,24.30
2018-09-22T11:22:38.886Z,24.90
2018-09-22T11:25:09.421Z,25.40
2018-09-22T11:27:40.249Z,26.70
2018-09-22T11:30:11.862Z,27.10
2018-09-22T11:32:42.645Z,26.90
2018-09-22T11:35:18.156Z,27.00
2018-09-22T11:37:49.164Z,27.80
2018-09-22T11:40:19.500Z,27.10
2018-09-22T11:42:51.077Z,25.80
2018-09-22T11:45:22.274Z,25.80
2018-09-22T11:47:54.177Z,26.10
2018-09-22T11:50:25.311Z,26.20
2018-09-22T11:52:56.186Z,26.20
2018-09-22T11:55:26.540Z,26.50
2018-09-22T11:57:56.931Z,24.60
2018-09-22T12:00:27.025Z,23.20
2018-09-22T12:02:57.270Z,23.40
2018-09-22T12:05:27.420Z,23.00
2018-09-22T12:07:57.644Z,22.30
2018-09-22T12:10:27.721Z,21.70
2018-09-22T12:12:57.998Z,23.00
2018-09-22T12:15:29.030Z,22.60
2018-09-22T12:17:59.517Z,23.60
2018-09-22T12:20:29.893Z,24.60
2018-09-22T12:23:00.239Z,24.00
2018-09-22T12:25:30.868Z,24.00
2018-09-22T12:28:00.873Z,23.70
2018-09-22T12:30:31.323Z,24.10
2018-09-22T12:33:01.847Z,24.90
2018-09-22T12:35:32.524Z,25.00
2018-09-22T12:38:03.314Z,24.90
2018-09-22T12:40:33.590Z,25.00
2018-09-22T12:43:04.381Z,26.30
2018-09-22T12:45:34.903Z,27.70
2018-09-22T12:48:05.304Z,28.90
2018-09-22T12:50:35.878Z,29.00
2018-09-22T12:53:06.646Z,28.10
2018-09-22T12:55:36.933Z,27.60
2018-09-22T12:58:07.661Z,26.60
2018-09-22T13:00:38.476Z,27.40
2018-09-22T13:03:08.946Z,26.80
2018-09-22T13:05:39.541Z,25.10
2018-09-22T13:08:10.265Z,24.30
2018-09-22T13:10:41.312Z,24.80
2018-09-22T13:13:11.561Z,24.50
2018-09-22T13:15:42.114Z,23.60
2018-09-22T13:18:12.793Z,24.00
2018-09-22T13:20:43.788Z,25.60
2018-09-22T13:23:13.868Z,27.30
2018-09-22T13:25:44.459Z,27.50
2018-09-22T13:28:15.089Z,25.30
2018-09-22T13:30:45.998Z,23.50
2018-09-22T13:33:17.170Z,24.40
2018-09-22T13:35:48.127Z,25.70
2018-09-22T13:38:19.541Z,24.90
2018-09-22T13:40:51.036Z,24.50
2018-09-22T13:43:21.466Z,24.10
2018-09-22T13:45:52.507Z,25.20
2018-09-22T13:48:23.343Z,24.10
2018-09-22T13:50:54.094Z,23.00
2018-09-22T13:53:25.481Z,22.40
2018-09-22T13:55:55.817Z,22.20
2018-09-22T13:58:26.426Z,21.80
2018-09-22T14:00:56.817Z,21.40
2018-09-22T14:03:27.207Z,20.60
2018-09-22T14:05:57.766Z,20.80
2018-09-22T14:08:28.490Z,21.50
2018-09-22T14:10:59.266Z,21.50
2018-09-22T14:13:30.668Z,21.10
2018-09-22T14:16:01.302Z,21.00
2018-09-22T14:18:31.527Z,20.80
2018-09-22T14:21:01.641Z,20.50
2018-09-22T14:23:31.727Z,20.40
2018-09-22T14:26:02.567Z,20.30
2018-09-22T14:28:33.126Z,20.20
2018-09-22T14:31:03.696Z,20.20
2018-09-22T14:33:34.708Z,20.40
2018-09-22T14:36:05.892Z,20.40
2018-09-22T14:38:37.683Z,20.30
2018-09-22T14:41:08.277Z,20.30
2018-09-22T14:43:39.003Z,20.20
2018-09-22T14:46:09.714Z,19.80
2018-09-22T14:48:40.803Z,19.30
2018-09-22T14:51:12.071Z,19.40
2018-09-22T14:53:43.111Z,19.80
2018-09-22T14:56:13.859Z,19.90
2018-09-22T14:58:44.509Z,19.80
2018-09-22T15:01:15.312Z,19.70
2018-09-22T15:03:46.352Z,19.70
2018-09-22T15:06:16.661Z,19.50
2018-09-22T15:08:47.374Z,19.50
2018-09-22T15:11:17.811Z,19.30
2018-09-22T15:13:48.357Z,19.10
2018-09-22T15:16:19.685Z,19.10
2018-09-22T15:18:50.759Z,19.10
2018-09-22T15:21:21.285Z,19.20
2018-09-22T15:23:52.848Z,19.20
2018-09-22T15:26:24.203Z,19.20
2018-09-22T15:28:55.564Z,19.30
2018-09-22T15:31:26.666Z,19.30
2018-09-22T15:33:57.255Z,19.20
2018-09-22T15:36:28.037Z,18.80
2018-09-22T15:38:58.663Z,18.50
2018-09-22T15:41:29.247Z,18.40
2018-09-22T15:44:00.627Z,18.30
2018-09-22T15:46:31.924Z,18.20
2018-09-22T15:49:02.838Z,18.20
2018-09-22T15:51:33.590Z,18.10
2018-09-22T15:54:04.595Z,18.00
2018-09-22T15:56:35.600Z,18.10
2018-09-22T15:59:06.403Z,18.00
2018-09-22T16:01:37.462Z,17.90
2018-09-22T16:04:08.272Z,17.80
2018-09-22T16:06:39.651Z,17.80
2018-09-22T16:09:11.460Z,17.60
2018-09-22T16:11:42.205Z,17.60
2018-09-22T16:14:13.770Z,17.60
2018-09-22T16:16:45.193Z,17.50
2018-09-22T16:19:15.715Z,17.50
2018-09-22T16:21:46.417Z,17.50
2018-09-22T16:24:17.145Z,17.40
2018-09-22T16:26:48.212Z,17.50
2018-09-22T16:29:19.426Z,17.60
2018-09-22T16:31:50.273Z,17.40
2018-09-22T16:34:21.729Z,17.40
2018-09-22T16:36:52.172Z,17.30
2018-09-22T16:39:23.538Z,17.30
2018-09-22T16:41:54.179Z,17.20
2018-09-22T16:44:27.180Z,17.20
2018-09-22T16:46:58.089Z,17.00
2018-09-22T16:49:29.067Z,17.10
2018-09-22T16:52:00.313Z,17.10
2018-09-22T16:54:31.060Z,17.10
2018-09-22T16:57:02.242Z,17.10
2018-09-22T16:59:33.587Z,16.90
2018-09-22T17:02:04.911Z,16.90
2018-09-22T17:04:36.433Z,16.80
2018-09-22T17:07:06.897Z,16.80
2018-09-22T17:09:37.193Z,16.80
2018-09-22T17:12:07.578Z,16.70
2018-09-22T17:14:37.823Z,16.60
2018-09-22T17:17:08.693Z,16.60
2018-09-22T17:19:39.550Z,16.60
2018-09-22T17:22:09.744Z,16.70
2018-09-22T17:24:40.541Z,16.70
2018-09-22T17:27:12.332Z,16.60
2018-09-22T17:29:43.365Z,16.60
2018-09-22T17:32:14.604Z,16.60
2018-09-22T17:34:46.113Z,16.50
2018-09-22T17:37:17.597Z,16.50
2018-09-22T17:39:48.557Z,16.50
2018-09-22T17:42:19.523Z,16.40
2018-09-22T17:44:50.422Z,16.40
2018-09-22T17:47:21.397Z,16.30
2018-09-22T17:49:52.758Z,16.40
2018-09-22T17:52:23.514Z,16.20
2018-09-22T17:54:53.693Z,16.30
2018-09-22T17:57:25.166Z,16.20
2018-09-22T17:59:55.939Z,16.20
2018-09-22T18:02:26.713Z,16.10
2018-09-22T18:04:57.798Z,16.10
2018-09-22T18:07:28.756Z,16.10
2018-09-22T18:09:59.488Z,16.10
2018-09-22T18:12:30.358Z,16.10
2018-09-22T18:15:00.929Z,16.10
2018-09-22T18:17:31.626Z,16.10
2018-09-22T18:20:02.548Z,16.00
2018-09-22T18:22:33.579Z,15.80
2018-09-22T18:25:04.481Z,15.90
2018-09-22T18:27:36.366Z,15.90
2018-09-22T18:30:07.556Z,15.90
2018-09-22T18:32:38.702Z,15.80
2018-09-22T18:35:10.821Z,15.80
2018-09-22T18:37:42.523Z,15.70
2018-09-22T18:40:13.244Z,15.70
2018-09-22T18:42:44.664Z,15.70
2018-09-22T18:45:15.266Z,15.70
2018-09-22T18:47:46.117Z,15.70
2018-09-22T18:50:16.626Z,15.60
2018-09-22T18:52:47.607Z,15.60
2018-09-22T18:55:18.319Z,15.70
2018-09-22T18:57:48.469Z,15.70
2018-09-22T19:00:18.637Z,15.70
2018-09-22T19:02:49.766Z,15.50
2018-09-22T19:05:21.181Z,15.50
2018-09-22T19:07:52.686Z,15.60
2018-09-22T19:10:23.515Z,15.60
2018-09-22T19:12:54.809Z,15.60
2018-09-22T19:15:58.054Z,15.50
2018-09-22T19:18:42.104Z,15.60
2018-09-22T19:21:16.017Z,15.60
2018-09-22T19:23:53.112Z,15.60
2018-09-22T19:26:30.730Z,15.70
2018-09-22T19:29:11.800Z,15.70
2018-09-22T19:31:49.778Z,15.70
2018-09-22T19:34:25.514Z,15.70
2018-09-22T19:37:01.266Z,15.50
2018-09-22T19:39:36.479Z,15.50
2018-09-22T19:42:12.669Z,15.40
2018-09-22T19:44:46.877Z,15.40
2018-09-22T19:47:36.684Z,15.50
2018-09-22T19:50:10.876Z,15.40
2018-09-22T19:52:51.676Z,15.40
2018-09-22T19:55:22.428Z,15.30
2018-09-22T19:57:52.937Z,15.50
2018-09-22T20:00:23.323Z,15.50
2018-09-22T20:02:54.166Z,15.40
2018-09-22T20:05:25.183Z,15.40
2018-09-22T20:07:55.837Z,15.30
2018-09-22T20:10:26.876Z,15.30
2018-09-22T20:12:57.125Z,15.40
2018-09-22T20:15:27.660Z,15.50
2018-09-22T20:17:58.707Z,15.50
2018-09-22T20:20:29.226Z,15.50
2018-09-22T20:23:00.855Z,15.40
2018-09-22T20:25:31.517Z,15.40
2018-09-22T20:28:02.019Z,15.40
2018-09-22T20:30:33.087Z,15.40
2018-09-22T20:33:04.008Z,15.40
2018-09-22T20:35:35.259Z,15.50
2018-09-22T20:38:06.836Z,15.50
2018-09-22T20:40:37.129Z,15.50
2018-09-22T20:43:07.637Z,15.50
2018-09-22T20:45:38.849Z,15.50
2018-09-22T20:48:10.765Z,15.50
2018-09-22T20:50:42.263Z,15.50
2018-09-22T20:53:14.273Z,15.60
2018-09-22T20:55:45.523Z,15.60
2018-09-22T20:58:16.775Z,15.60
2018-09-22T21:00:47.416Z,15.60
2018-09-22T21:03:18.527Z,15.60
2018-09-22T21:05:49.566Z,15.50
2018-09-22T21:08:20.477Z,15.50
2018-09-22T21:10:51.885Z,15.40
2018-09-22T21:13:23.017Z,15.40
2018-09-22T21:15:53.685Z,15.40
2018-09-22T21:18:25.006Z,15.40
2018-09-22T21:20:56.013Z,15.50
2018-09-22T21:23:27.577Z,15.40
2018-09-22T21:25:59.066Z,15.40
2018-09-22T21:28:30.120Z,15.40
2018-09-22T21:31:01.315Z,15.40
2018-09-22T21:33:32.581Z,15.40
2018-09-22T21:36:04.607Z,15.30
2018-09-22T21:38:35.471Z,15.20
2018-09-22T21:41:06.364Z,15.20
2018-09-22T21:43:37.588Z,15.20
2018-09-22T21:46:08.436Z,15.20
2018-09-22T21:48:39.524Z,15.10
2018-09-22T21:51:10.762Z,15.10
2018-09-22T21:53:41.519Z,15.10
2018-09-22T21:56:12.604Z,15.20
2018-09-22T21:58:43.203Z,15.40
2018-09-22T22:01:18.163Z,15.30
2018-09-22T22:03:48.184Z,15.30
2018-09-22T22:06:18.341Z,15.30
2018-09-22T22:08:48.583Z,15.20
2018-09-22T22:11:18.754Z,15.10
2018-09-22T22:13:48.913Z,15.20
2018-09-22T22:16:18.918Z,15.30
2018-09-22T22:18:48.883Z,15.30
2018-09-22T22:21:23.481Z,15.20
2018-09-22T22:23:53.692Z,15.30
2018-09-22T22:26:23.828Z,15.30
2018-09-22T22:28:55.324Z,15.10
2018-09-22T22:31:25.246Z,15.00
2018-09-22T22:33:55.591Z,15.00
2018-09-22T22:36:25.592Z,15.00
2018-09-22T22:38:55.981Z,15.00
2018-09-22T22:41:25.969Z,15.00
2018-09-22T22:43:56.306Z,14.90
2018-09-22T22:46:26.425Z,14.90
2018-09-22T22:48:56.833Z,15.00
2018-09-22T22:51:27.042Z,15.00
2018-09-22T22:53:57.262Z,15.10
2018-09-22T22:56:27.387Z,15.20
2018-09-22T22:58:57.478Z,15.20
2018-09-22T23:01:27.816Z,15.10
2018-09-22T23:03:57.791Z,15.00
2018-09-22T23:06:27.759Z,15.00
2018-09-22T23:08:57.939Z,14.90
2018-09-22T23:11:28.086Z,14.90
2018-09-22T23:13:58.025Z,14.90
2018-09-22T23:16:28.422Z,14.80
2018-09-22T23:18:58.761Z,14.80
2018-09-22T23:21:29.222Z,14.80
2018-09-22T23:23:59.962Z,14.70
2018-09-22T23:26:30.081Z,14.70
2018-09-22T23:29:00.583Z,14.70
2018-09-22T23:31:30.704Z,14.70
2018-09-22T23:34:01.252Z,14.70
2018-09-22T23:36:31.239Z,14.70
2018-09-22T23:39:01.367Z,14.70
2018-09-22T23:41:31.384Z,14.70
2018-09-22T23:44:01.578Z,14.70
2018-09-22T23:46:31.693Z,14.70
2018-09-22T23:49:02.029Z,14.80
2018-09-22T23:51:32.391Z,14.80
2018-09-22T23:54:02.587Z,14.70
2018-09-22T23:56:32.583Z,14.80
2018-09-22T23:59:02.883Z,14.70
